createdAt,value
2019-02-21T00:00:35.821Z,5.60
2019-02-21T00:03:04.916Z,5.70
2019-02-21T00:05:33.853Z,5.70
2019-02-21T00:08:02.752Z,5.80
2019-02-21T00:10:31.683Z,5.80
2019-02-21T00:13:00.519Z,5.80
2019-02-21T00:15:29.473Z,5.80
2019-02-21T00:17:58.552Z,5.80
2019-02-21T00:20:27.456Z,5.80
2019-02-21T00:22:56.428Z,5.80
2019-02-21T00:25:25.444Z,5.80
2019-02-21T00:27:54.269Z,5.70
2019-02-21T00:30:23.178Z,5.70
2019-02-21T00:32:52.541Z,5.70
2019-02-21T00:35:21.478Z,5.70
2019-02-21T00:37:50.454Z,5.80
2019-02-21T00:40:19.471Z,5.80
2019-02-21T00:42:48.440Z,5.80
2019-02-21T00:45:17.316Z,5.80
2019-02-21T00:47:46.170Z,5.80
2019-02-21T00:50:14.999Z,5.70
2019-02-21T00:52:44.289Z,5.70
2019-02-21T00:55:13.228Z,5.70
2019-02-21T00:57:42.148Z,5.70
2019-02-21T01:00:12.894Z,5.70
2019-02-21T01:02:41.826Z,5.80
2019-02-21T01:05:10.849Z,5.70
2019-02-21T01:07:39.841Z,5.70
2019-02-21T01:10:08.861Z,5.70
2019-02-21T01:12:37.865Z,5.70
2019-02-21T01:15:08.256Z,5.70
2019-02-21T01:17:37.101Z,5.70
2019-02-21T01:20:06.135Z,5.60
2019-02-21T01:22:35.093Z,5.70
2019-02-21T01:25:04.300Z,5.70
2019-02-21T01:27:33.176Z,5.70
2019-02-21T01:30:02.298Z,5.70
2019-02-21T01:32:31.217Z,5.60
2019-02-21T01:35:00.314Z,5.60
2019-02-21T01:37:29.334Z,5.70
2019-02-21T01:39:58.492Z,5.70
2019-02-21T01:42:27.491Z,5.70
2019-02-21T01:44:56.866Z,5.70
2019-02-21T01:47:25.785Z,5.70
2019-02-21T01:49:54.719Z,5.70
2019-02-21T01:52:24.015Z,5.60
2019-02-21T01:54:53.029Z,5.60
2019-02-21T01:57:23.142Z,5.50
2019-02-21T01:59:52.332Z,5.50
2019-02-21T02:02:21.264Z,5.50
2019-02-21T02:04:50.120Z,5.50
2019-02-21T02:07:19.052Z,5.40
2019-02-21T02:09:47.977Z,5.40
2019-02-21T02:12:16.969Z,5.40
2019-02-21T02:14:45.931Z,5.40
2019-02-21T02:17:14.863Z,5.40
2019-02-21T02:19:44.179Z,5.30
2019-02-21T02:22:13.625Z,5.30
2019-02-21T02:24:42.567Z,5.20
2019-02-21T02:27:11.484Z,5.20
2019-02-21T02:29:40.582Z,5.10
2019-02-21T02:32:10.009Z,5.10
2019-02-21T02:34:39.397Z,5.10
2019-02-21T02:37:08.435Z,5.00
2019-02-21T02:39:37.805Z,5.00
2019-02-21T02:42:06.796Z,4.90
2019-02-21T02:44:44.842Z,4.80
2019-02-21T02:47:13.810Z,4.70
2019-02-21T02:49:42.586Z,4.70
2019-02-21T02:52:11.479Z,4.70
2019-02-21T02:54:40.256Z,4.60
2019-02-21T02:57:09.169Z,4.50
2019-02-21T02:59:41.119Z,4.40
2019-02-21T03:02:08.438Z,4.30
2019-02-21T03:04:37.300Z,4.30
2019-02-21T03:07:06.312Z,4.20
2019-02-21T03:09:35.110Z,4.10
2019-02-21T03:12:04.200Z,4.00
2019-02-21T03:14:33.003Z,4.00
2019-02-21T03:17:02.104Z,4.00
2019-02-21T03:19:30.888Z,4.00
2019-02-21T03:21:59.964Z,4.00
2019-02-21T03:24:28.757Z,3.90
2019-02-21T03:26:57.514Z,3.80
2019-02-21T03:29:26.660Z,3.70
2019-02-21T03:31:56.409Z,3.60
2019-02-21T03:34:25.481Z,3.60
2019-02-21T03:36:54.438Z,3.50
2019-02-21T03:39:23.210Z,3.40
2019-02-21T03:41:52.298Z,3.30
2019-02-21T03:44:21.122Z,3.20
2019-02-21T03:46:49.911Z,3.10
2019-02-21T03:49:18.674Z,3.00
2019-02-21T03:51:47.804Z,3.00
2019-02-21T03:54:16.757Z,3.00
2019-02-21T03:56:46.034Z,3.00
2019-02-21T03:59:15.938Z,3.20
2019-02-21T04:01:44.865Z,3.20
2019-02-21T04:04:13.780Z,3.30
2019-02-21T04:06:43.154Z,3.20
2019-02-21T04:09:11.952Z,3.20
2019-02-21T04:11:41.688Z,3.30
2019-02-21T04:14:10.635Z,3.20
2019-02-21T04:16:39.879Z,3.30
2019-02-21T04:19:08.951Z,3.30
2019-02-21T04:21:37.817Z,3.30
2019-02-21T04:24:06.987Z,3.20
2019-02-21T04:26:37.097Z,3.20
2019-02-21T04:29:05.912Z,3.20
2019-02-21T04:31:34.751Z,3.20
2019-02-21T04:34:03.524Z,3.10
2019-02-21T04:36:32.443Z,3.10
2019-02-21T04:39:01.214Z,3.00
2019-02-21T04:41:30.055Z,3.00
2019-02-21T04:43:58.850Z,2.90
2019-02-21T04:46:27.634Z,2.90
2019-02-21T04:48:56.782Z,2.80
2019-02-21T04:51:25.585Z,2.80
2019-02-21T04:53:54.384Z,2.80
2019-02-21T04:56:23.540Z,2.90
2019-02-21T04:58:52.326Z,2.90
2019-02-21T05:01:21.404Z,2.80
2019-02-21T05:03:50.179Z,2.90
2019-02-21T05:06:19.284Z,2.90
2019-02-21T05:08:48.093Z,3.00
2019-02-21T05:11:16.915Z,3.10
2019-02-21T05:13:45.752Z,3.00
2019-02-21T05:16:14.595Z,2.90
2019-02-21T05:18:44.276Z,2.90
2019-02-21T05:21:13.069Z,2.80
2019-02-21T05:23:41.871Z,2.80
2019-02-21T05:26:13.373Z,2.70
2019-02-21T05:28:42.524Z,2.80
2019-02-21T05:31:23.288Z,2.80
2019-02-21T05:34:17.533Z,2.80
2019-02-21T05:36:58.650Z,2.80
2019-02-21T05:39:36.849Z,2.80
2019-02-21T05:42:23.869Z,2.80
2019-02-21T05:45:26.965Z,2.80
2019-02-21T05:48:13.571Z,2.70
2019-02-21T05:50:55.393Z,2.60
2019-02-21T05:53:49.371Z,2.50
2019-02-21T05:56:40.684Z,2.50
2019-02-21T05:59:23.023Z,2.30
2019-02-21T06:02:11.764Z,2.30
2019-02-21T06:04:51.992Z,2.30
2019-02-21T06:07:37.790Z,2.40
2019-02-21T06:10:16.410Z,2.40
2019-02-21T06:13:13.578Z,2.40
2019-02-21T06:16:00.857Z,2.50
2019-02-21T06:18:46.968Z,2.50
2019-02-21T06:21:34.850Z,2.50
2019-02-21T06:24:21.592Z,2.50
2019-02-21T06:26:57.997Z,2.40
2019-02-21T06:29:33.896Z,2.40
2019-02-21T06:32:01.794Z,2.30
2019-02-21T06:34:31.794Z,2.10
2019-02-21T06:37:01.064Z,2.00
2019-02-21T06:39:29.902Z,2.00
2019-02-21T06:42:00.047Z,2.10
2019-02-21T06:44:29.554Z,2.30
2019-02-21T06:46:58.369Z,2.40
2019-02-21T06:49:32.468Z,2.40
2019-02-21T06:51:58.623Z,2.60
2019-02-21T06:54:27.462Z,2.70
2019-02-21T06:56:56.503Z,2.70
2019-02-21T06:59:25.321Z,2.80
2019-02-21T07:01:54.140Z,2.80
2019-02-21T07:04:23.673Z,2.80
2019-02-21T07:06:52.481Z,2.90
2019-02-21T07:09:21.302Z,3.00
2019-02-21T07:11:50.446Z,3.00
2019-02-21T07:14:19.303Z,3.00
2019-02-21T07:16:48.102Z,3.10
2019-02-21T07:19:16.896Z,3.20
2019-02-21T07:21:45.758Z,3.40
2019-02-21T07:24:14.618Z,3.60
2019-02-21T07:26:43.472Z,3.70
2019-02-21T07:29:12.342Z,4.00
2019-02-21T07:31:41.215Z,4.10
2019-02-21T07:34:10.331Z,4.20
2019-02-21T07:36:39.418Z,4.40
2019-02-21T07:39:17.033Z,4.50
2019-02-21T07:41:41.463Z,4.70
2019-02-21T07:44:12.305Z,4.90
2019-02-21T07:46:39.945Z,5.10
2019-02-21T07:49:08.809Z,5.30
2019-02-21T07:51:37.611Z,5.60
2019-02-21T07:54:06.562Z,5.80
2019-02-21T07:56:41.981Z,6.10
2019-02-21T07:59:05.986Z,6.30
2019-02-21T08:01:34.835Z,6.50
2019-02-21T08:04:03.723Z,6.60
2019-02-21T08:06:32.602Z,6.80
2019-02-21T08:09:01.419Z,7.40
2019-02-21T08:11:30.367Z,7.80
2019-02-21T08:13:59.269Z,8.20
2019-02-21T08:16:28.156Z,8.70
2019-02-21T08:18:56.937Z,8.70
2019-02-21T08:21:26.028Z,8.50
2019-02-21T08:23:55.237Z,8.20
2019-02-21T08:26:24.059Z,7.90
2019-02-21T08:28:52.915Z,7.70
2019-02-21T08:31:21.775Z,7.50
2019-02-21T08:34:06.730Z,7.30
2019-02-21T08:36:35.526Z,7.30
2019-02-21T08:39:07.439Z,7.20
2019-02-21T08:41:36.697Z,7.00
2019-02-21T08:44:05.636Z,6.90
2019-02-21T08:46:34.422Z,6.90
2019-02-21T08:49:03.219Z,6.80
2019-02-21T08:51:32.119Z,6.90
2019-02-21T08:54:00.917Z,7.00
2019-02-21T08:56:30.062Z,6.90
2019-02-21T08:58:58.938Z,7.00
2019-02-21T09:01:27.739Z,7.20
2019-02-21T09:03:56.582Z,7.30
2019-02-21T09:06:25.457Z,7.50
2019-02-21T09:08:54.290Z,7.70
2019-02-21T09:11:23.242Z,8.00
2019-02-21T09:13:52.096Z,8.00
2019-02-21T09:16:21.774Z,8.10
2019-02-21T09:18:50.548Z,8.20
2019-02-21T09:21:19.556Z,8.30
2019-02-21T09:23:48.363Z,8.40
2019-02-21T09:26:17.422Z,8.50
2019-02-21T09:28:46.260Z,8.50
2019-02-21T09:31:15.126Z,8.30
2019-02-21T09:33:44.025Z,8.20
2019-02-21T09:36:12.862Z,8.30
2019-02-21T09:38:41.651Z,8.30
2019-02-21T09:41:10.689Z,8.40
2019-02-21T09:43:39.762Z,8.50
2019-02-21T09:46:08.897Z,8.60
2019-02-21T09:48:37.700Z,8.60
2019-02-21T09:51:06.634Z,8.60
2019-02-21T09:53:35.599Z,8.50
2019-02-21T09:56:04.527Z,8.50
2019-02-21T09:58:33.654Z,8.60
2019-02-21T10:01:02.709Z,8.70
2019-02-21T10:03:31.486Z,8.60
2019-02-21T10:06:02.454Z,8.70
2019-02-21T10:08:31.278Z,8.80
2019-02-21T10:11:00.921Z,8.90
2019-02-21T10:13:29.879Z,8.90
2019-02-21T10:15:58.671Z,8.90
2019-02-21T10:18:27.482Z,9.30
2019-02-21T10:20:56.262Z,9.40
2019-02-21T10:23:25.076Z,9.60
2019-02-21T10:25:53.919Z,9.80
2019-02-21T10:28:22.767Z,9.90
2019-02-21T10:30:51.903Z,10.50
2019-02-21T10:33:20.670Z,10.90
2019-02-21T10:35:49.479Z,11.00
2019-02-21T10:38:18.403Z,11.40
2019-02-21T10:40:47.212Z,11.80
2019-02-21T10:43:16.015Z,11.70
2019-02-21T10:45:47.890Z,11.80
2019-02-21T10:48:15.368Z,12.20
2019-02-21T10:50:44.164Z,12.50
2019-02-21T10:53:13.065Z,12.70
2019-02-21T10:55:41.961Z,13.00
2019-02-21T10:58:10.768Z,13.40
2019-02-21T11:00:39.651Z,14.60
2019-02-21T11:03:08.522Z,15.30
2019-02-21T11:05:37.479Z,15.50
2019-02-21T11:08:06.462Z,15.40
2019-02-21T11:10:35.407Z,15.30
2019-02-21T11:13:04.258Z,15.10
2019-02-21T11:15:33.142Z,15.00
2019-02-21T11:18:02.210Z,14.80
2019-02-21T11:20:31.341Z,14.50
2019-02-21T11:23:00.960Z,14.10
2019-02-21T11:25:29.723Z,14.10
2019-02-21T11:27:58.630Z,13.70
2019-02-21T11:30:27.439Z,13.70
2019-02-21T11:32:56.261Z,14.10
2019-02-21T11:35:25.163Z,15.00
2019-02-21T11:37:53.955Z,15.90
2019-02-21T11:40:22.899Z,16.40
2019-02-21T11:42:51.678Z,16.60
2019-02-21T11:45:21.264Z,16.90
2019-02-21T11:47:50.123Z,16.90
2019-02-21T11:50:19.083Z,16.30
2019-02-21T11:52:47.992Z,16.50
2019-02-21T11:55:18.590Z,17.40
2019-02-21T11:57:47.580Z,18.20
2019-02-21T12:00:21.480Z,17.80
2019-02-21T12:02:50.480Z,17.40
2019-02-21T12:05:30.617Z,17.20
2019-02-21T12:07:50.258Z,17.20
2019-02-21T12:10:19.266Z,16.80
2019-02-21T12:12:48.215Z,17.00
2019-02-21T12:15:17.217Z,16.80
2019-02-21T12:17:46.075Z,16.10
2019-02-21T12:20:15.255Z,15.70
2019-02-21T12:22:44.241Z,15.90
2019-02-21T12:25:14.187Z,15.90
2019-02-21T12:27:42.998Z,15.60
2019-02-21T12:30:14.306Z,15.10
2019-02-21T12:32:43.314Z,14.70
2019-02-21T12:35:13.234Z,14.40
2019-02-21T12:37:42.146Z,14.10
2019-02-21T12:40:13.227Z,13.80
2019-02-21T12:42:42.179Z,13.50
2019-02-21T12:45:12.875Z,13.30
2019-02-21T12:47:49.767Z,13.30
2019-02-21T12:50:12.413Z,13.20
2019-02-21T12:52:41.307Z,13.30
2019-02-21T12:55:10.256Z,13.30
2019-02-21T12:57:39.211Z,13.40
2019-02-21T13:00:11.387Z,13.50
2019-02-21T13:02:40.264Z,13.70
2019-02-21T13:05:09.527Z,13.70
2019-02-21T13:07:38.730Z,13.60
2019-02-21T13:10:10.347Z,13.70
2019-02-21T13:12:39.231Z,13.80
2019-02-21T13:15:09.655Z,13.80
2019-02-21T13:17:38.538Z,13.90
2019-02-21T13:20:08.551Z,13.90
2019-02-21T13:22:37.709Z,13.80
2019-02-21T13:25:07.107Z,13.70
2019-02-21T13:27:36.020Z,13.70
2019-02-21T13:30:06.109Z,13.70
2019-02-21T13:32:34.925Z,13.60
2019-02-21T13:35:03.978Z,13.60
2019-02-21T13:37:32.807Z,13.60
2019-02-21T13:40:01.614Z,13.40
2019-02-21T13:42:30.453Z,13.30
2019-02-21T13:44:59.456Z,13.10
2019-02-21T13:47:28.271Z,13.00
2019-02-21T13:49:57.155Z,12.80
2019-02-21T13:52:26.008Z,12.60
2019-02-21T13:54:55.160Z,12.80
2019-02-21T13:57:24.013Z,13.10
2019-02-21T13:59:52.791Z,13.60
2019-02-21T14:02:21.698Z,14.00
2019-02-21T14:04:50.526Z,14.40
2019-02-21T14:07:19.335Z,14.60
2019-02-21T14:09:48.290Z,14.30
2019-02-21T14:12:17.102Z,13.90
2019-02-21T14:14:46.374Z,13.60
2019-02-21T14:17:15.261Z,13.40
2019-02-21T14:19:44.153Z,13.20
2019-02-21T14:22:12.973Z,13.10
2019-02-21T14:24:41.755Z,12.90
2019-02-21T14:27:10.583Z,12.80
2019-02-21T14:29:39.770Z,12.80
2019-02-21T14:32:08.821Z,12.80
2019-02-21T14:34:37.602Z,12.70
2019-02-21T14:37:06.434Z,12.70
2019-02-21T14:39:35.602Z,12.60
2019-02-21T14:42:04.620Z,12.50
2019-02-21T14:44:33.503Z,12.40
2019-02-21T14:47:02.390Z,12.40
2019-02-21T14:49:31.260Z,12.40
2019-02-21T14:52:01.977Z,12.40
2019-02-21T14:54:31.038Z,12.30
2019-02-21T14:56:59.929Z,12.40
2019-02-21T14:59:28.715Z,12.40
2019-02-21T15:01:57.658Z,12.40
2019-02-21T15:04:26.471Z,12.40
2019-02-21T15:06:55.386Z,12.50
2019-02-21T15:09:24.526Z,12.50
2019-02-21T15:11:53.486Z,12.60
2019-02-21T15:14:22.300Z,12.70
2019-02-21T15:16:51.494Z,12.80
2019-02-21T15:19:20.286Z,12.80
2019-02-21T15:21:49.167Z,12.70
2019-02-21T15:24:18.374Z,12.60
2019-02-21T15:26:47.180Z,12.60
2019-02-21T15:29:16.003Z,12.40
2019-02-21T15:31:44.875Z,12.30
2019-02-21T15:34:13.863Z,12.20
2019-02-21T15:36:42.738Z,12.10
2019-02-21T15:39:11.685Z,12.10
2019-02-21T15:41:40.634Z,12.00
2019-02-21T15:44:09.438Z,12.10
2019-02-21T15:46:38.318Z,12.10
2019-02-21T15:49:07.315Z,12.00
2019-02-21T15:51:36.097Z,12.00
2019-02-21T15:54:04.974Z,12.00
2019-02-21T15:56:34.630Z,11.90
2019-02-21T15:59:03.599Z,11.90
2019-02-21T16:01:32.455Z,12.00
2019-02-21T16:04:01.364Z,12.00
2019-02-21T16:06:30.223Z,11.90
2019-02-21T16:08:58.998Z,11.90
2019-02-21T16:11:27.813Z,11.90
2019-02-21T16:14:02.939Z,11.80
2019-02-21T16:16:27.554Z,11.80
2019-02-21T16:18:58.711Z,11.70
2019-02-21T16:21:27.299Z,11.70
2019-02-21T16:23:56.058Z,11.60
2019-02-21T16:26:24.846Z,11.50
2019-02-21T16:28:53.637Z,11.40
2019-02-21T16:31:22.406Z,11.40
2019-02-21T16:33:51.206Z,11.40
2019-02-21T16:36:20.259Z,11.20
2019-02-21T16:38:49.106Z,11.10
2019-02-21T16:41:17.909Z,11.00
2019-02-21T16:43:46.678Z,11.00
2019-02-21T16:46:15.722Z,11.00
2019-02-21T16:48:44.687Z,10.90
2019-02-21T16:51:13.467Z,10.80
2019-02-21T16:53:42.278Z,10.70
2019-02-21T16:56:13.387Z,10.70
2019-02-21T16:58:42.915Z,10.70
2019-02-21T17:01:12.015Z,10.60
2019-02-21T17:03:40.915Z,10.50
2019-02-21T17:06:10.420Z,10.40
2019-02-21T17:08:39.263Z,10.40
2019-02-21T17:11:08.551Z,10.30
2019-02-21T17:13:37.358Z,10.20
2019-02-21T17:16:06.330Z,10.10
2019-02-21T17:18:36.182Z,10.00
2019-02-21T17:21:05.139Z,9.90
2019-02-21T17:23:33.966Z,9.80
2019-02-21T17:26:03.332Z,9.80
2019-02-21T17:28:32.226Z,9.70
2019-02-21T17:31:01.046Z,9.60
2019-02-21T17:33:29.968Z,9.50
2019-02-21T17:35:58.798Z,9.40
2019-02-21T17:38:27.559Z,9.30
2019-02-21T17:40:56.459Z,9.30
2019-02-21T17:43:25.328Z,9.30
2019-02-21T17:45:54.172Z,9.10
2019-02-21T17:48:23.239Z,9.00
2019-02-21T17:50:52.027Z,9.00
2019-02-21T17:53:20.832Z,9.00
2019-02-21T17:55:50.041Z,9.00
2019-02-21T17:58:18.898Z,9.00
2019-02-21T18:00:47.998Z,8.90
2019-02-21T18:03:16.972Z,8.80
2019-02-21T18:05:46.327Z,8.70
2019-02-21T18:08:15.572Z,8.60
2019-02-21T18:10:44.631Z,8.60
2019-02-21T18:13:13.477Z,8.60
2019-02-21T18:15:42.362Z,8.60
2019-02-21T18:18:11.159Z,8.70
2019-02-21T18:20:40.163Z,8.80
2019-02-21T18:23:09.027Z,8.80
2019-02-21T18:25:40.659Z,8.70
2019-02-21T18:28:09.571Z,8.70
2019-02-21T18:30:38.494Z,8.60
2019-02-21T18:33:07.398Z,8.60
2019-02-21T18:35:36.245Z,8.70
2019-02-21T18:38:05.158Z,8.80
2019-02-21T18:40:34.139Z,8.90
2019-02-21T18:43:02.941Z,8.90
2019-02-21T18:45:31.829Z,9.00
2019-02-21T18:48:00.761Z,9.10
2019-02-21T18:50:37.643Z,9.20
2019-02-21T18:53:00.657Z,9.30
2019-02-21T18:55:30.425Z,9.30
2019-02-21T18:57:59.906Z,9.20
2019-02-21T19:00:29.231Z,9.10
2019-02-21T19:02:58.048Z,9.00
2019-02-21T19:05:35.245Z,9.00
2019-02-21T19:08:04.161Z,8.90
2019-02-21T19:10:28.562Z,8.90
2019-02-21T19:12:57.363Z,9.00
2019-02-21T19:15:28.328Z,9.00
2019-02-21T19:17:57.421Z,8.90
2019-02-21T19:20:26.732Z,8.90
2019-02-21T19:22:55.723Z,8.90
2019-02-21T19:25:24.587Z,8.90
2019-02-21T19:27:53.423Z,8.90
2019-02-21T19:30:28.449Z,8.90
2019-02-21T19:32:57.470Z,8.90
2019-02-21T19:35:26.455Z,8.90
2019-02-21T19:37:55.326Z,8.90
2019-02-21T19:40:24.255Z,8.90
2019-02-21T19:42:53.265Z,9.00
2019-02-21T19:45:22.215Z,9.00
2019-02-21T19:47:51.115Z,9.00
2019-02-21T19:50:20.039Z,9.00
2019-02-21T19:52:48.899Z,8.90
2019-02-21T19:55:17.752Z,8.90
2019-02-21T19:57:46.592Z,8.90
2019-02-21T20:00:17.593Z,8.90
2019-02-21T20:02:46.530Z,8.90
2019-02-21T20:05:15.776Z,8.80
2019-02-21T20:07:44.783Z,8.90
2019-02-21T20:10:13.707Z,8.90
2019-02-21T20:12:42.914Z,8.90
2019-02-21T20:15:12.179Z,9.00
2019-02-21T20:17:41.107Z,9.00
2019-02-21T20:20:11.072Z,9.00
2019-02-21T20:22:40.366Z,9.00
2019-02-21T20:25:09.487Z,9.10
2019-02-21T20:27:38.345Z,9.10
2019-02-21T20:30:08.662Z,9.20
2019-02-21T20:32:37.511Z,9.20
2019-02-21T20:35:06.532Z,9.20
2019-02-21T20:37:35.454Z,9.20
2019-02-21T20:40:04.952Z,9.20
2019-02-21T20:42:33.997Z,9.20
2019-02-21T20:45:02.959Z,9.30
2019-02-21T20:47:31.727Z,9.30
2019-02-21T20:50:00.706Z,9.30
2019-02-21T20:52:29.571Z,9.30
2019-02-21T20:54:58.442Z,9.30
2019-02-21T20:57:27.280Z,9.30
2019-02-21T20:59:56.093Z,9.30
2019-02-21T21:02:24.985Z,9.20
2019-02-21T21:04:54.062Z,9.20
2019-02-21T21:07:25.425Z,9.20
2019-02-21T21:09:53.871Z,9.10
2019-02-21T21:12:22.835Z,9.10
2019-02-21T21:14:51.618Z,9.10
2019-02-21T21:17:20.423Z,9.20
2019-02-21T21:19:49.279Z,9.10
2019-02-21T21:22:18.071Z,9.10
2019-02-21T21:24:46.906Z,9.10
2019-02-21T21:27:15.778Z,9.10
2019-02-21T21:29:44.567Z,9.20
2019-02-21T21:32:13.454Z,9.10
2019-02-21T21:34:42.678Z,9.10
2019-02-21T21:37:11.599Z,9.10
2019-02-21T21:39:40.443Z,9.10
2019-02-21T21:42:09.711Z,9.20
2019-02-21T21:44:39.132Z,9.20
2019-02-21T21:47:08.113Z,9.20
2019-02-21T21:49:37.232Z,9.20
2019-02-21T21:52:08.654Z,9.20
2019-02-21T21:54:38.065Z,9.20
2019-02-21T21:57:07.112Z,9.20
2019-02-21T21:59:36.042Z,9.20
2019-02-21T22:02:04.975Z,9.20
2019-02-21T22:04:33.982Z,9.20
2019-02-21T22:07:02.812Z,9.20
2019-02-21T22:09:43.842Z,9.20
2019-02-21T22:12:12.872Z,9.30
2019-02-21T22:14:41.696Z,9.30
2019-02-21T22:17:10.579Z,9.30
2019-02-21T22:19:39.439Z,9.30
2019-02-21T22:22:09.380Z,9.30
2019-02-21T22:24:38.257Z,9.30
2019-02-21T22:27:08.256Z,9.30
2019-02-21T22:29:41.549Z,9.30
2019-02-21T22:32:10.341Z,9.30
2019-02-21T22:34:39.146Z,9.30
2019-02-21T22:37:08.007Z,9.20
2019-02-21T22:39:45.183Z,9.20
2019-02-21T22:42:31.080Z,9.20
2019-02-21T22:44:59.882Z,9.20
2019-02-21T22:47:28.827Z,9.10
2019-02-21T22:49:57.919Z,9.10
2019-02-21T22:52:26.884Z,9.10
2019-02-21T22:54:56.079Z,9.10
2019-02-21T22:57:25.161Z,9.10
2019-02-21T22:59:54.423Z,9.20
2019-02-21T23:02:23.853Z,9.20
2019-02-21T23:05:20.744Z,9.10
2019-02-21T23:08:20.062Z,9.10
2019-02-21T23:10:48.950Z,9.10
2019-02-21T23:13:17.753Z,9.00
2019-02-21T23:15:46.556Z,8.90
2019-02-21T23:18:15.442Z,8.70
2019-02-21T23:20:44.330Z,8.60
2019-02-21T23:23:13.403Z,8.50
2019-02-21T23:25:42.381Z,8.50
2019-02-21T23:28:11.232Z,8.40
2019-02-21T23:30:40.183Z,8.40
2019-02-21T23:33:09.019Z,8.40
2019-02-21T23:35:37.850Z,8.40
2019-02-21T23:38:06.717Z,8.40
2019-02-21T23:40:37.013Z,8.30
2019-02-21T23:43:06.274Z,8.30
2019-02-21T23:45:35.218Z,8.40
2019-02-21T23:48:04.087Z,8.30
2019-02-21T23:50:33.223Z,8.20
2019-02-21T23:53:02.315Z,8.20
2019-02-21T23:55:31.104Z,8.10
2019-02-21T23:57:59.902Z,8.10
